createdAt,value
2022-07-25T00:02:10.011Z,12.80
2022-07-25T00:04:40.499Z,15.27
2022-07-25T00:07:12.007Z,13.13
2022-07-25T00:09:39.835Z,20.25
2022-07-25T00:12:08.335Z,13.52
2022-07-25T00:14:39.154Z,13.38
2022-07-25T00:17:06.985Z,15.48
2022-07-25T00:19:34.749Z,15.00
2022-07-25T00:22:02.583Z,16.27
2022-07-25T00:24:32.025Z,15.80
2022-07-25T00:26:59.859Z,17.77
2022-07-25T00:29:27.606Z,16.88
2022-07-25T00:31:55.392Z,14.38
2022-07-25T00:34:23.239Z,15.98
2022-07-25T00:36:51.015Z,13.63
2022-07-25T00:39:18.857Z,13.90
2022-07-25T00:41:48.012Z,13.77
2022-07-25T00:44:24.117Z,14.82
2022-07-25T00:46:53.307Z,15.73
2022-07-25T00:49:21.880Z,18.98
2022-07-25T00:51:50.993Z,17.80
2022-07-25T00:54:18.998Z,16.00
2022-07-25T00:56:49.146Z,14.63
2022-07-25T00:59:17.889Z,15.95
2022-07-25T01:01:48.294Z,14.05
2022-07-25T01:04:17.430Z,17.98
2022-07-25T01:06:45.568Z,16.13
2022-07-25T01:09:13.454Z,17.17
2022-07-25T01:11:41.344Z,14.60
2022-07-25T01:14:10.682Z,14.90
2022-07-25T01:16:38.514Z,16.42
2022-07-25T01:19:06.262Z,15.80
2022-07-25T01:21:39.028Z,18.90
2022-07-25T01:24:08.738Z,18.60
2022-07-25T01:26:38.073Z,15.35
2022-07-25T01:29:06.394Z,17.45
2022-07-25T01:31:34.473Z,16.05
2022-07-25T01:34:02.399Z,15.60
2022-07-25T01:36:30.257Z,15.68
2022-07-25T01:38:59.786Z,16.33
2022-07-25T01:41:27.817Z,16.33
2022-07-25T01:43:55.610Z,18.48
2022-07-25T01:46:23.441Z,18.75
2022-07-25T01:48:51.510Z,17.75
2022-07-25T01:51:20.399Z,16.88
2022-07-25T01:53:48.656Z,21.77
2022-07-25T01:56:19.413Z,18.17
2022-07-25T01:58:50.293Z,18.05
2022-07-25T02:01:19.450Z,18.10
2022-07-25T02:03:49.645Z,17.85
2022-07-25T02:06:19.253Z,17.17
2022-07-25T02:08:47.026Z,19.75
2022-07-25T02:11:14.800Z,20.77
2022-07-25T02:13:44.641Z,24.15
2022-07-25T02:16:12.688Z,21.73
2022-07-25T02:18:40.816Z,19.60
2022-07-25T02:21:14.221Z,18.45
2022-07-25T02:23:44.702Z,19.85
2022-07-25T02:26:14.929Z,21.85
2022-07-25T02:28:44.041Z,22.80
2022-07-25T02:31:11.896Z,19.45
2022-07-25T02:33:39.733Z,18.08
2022-07-25T02:36:08.343Z,17.83
2022-07-25T02:38:36.162Z,19.60
2022-07-25T02:41:04.590Z,18.33
2022-07-25T02:43:33.032Z,17.27
2022-07-25T02:46:02.463Z,20.77
2022-07-25T02:48:30.565Z,20.08
2022-07-25T02:50:58.878Z,19.85
2022-07-25T02:53:54.486Z,19.35
2022-07-25T02:56:14.871Z,21.23
2022-07-25T02:58:44.251Z,19.52
2022-07-25T03:01:14.243Z,19.65
2022-07-25T03:03:42.162Z,20.27
2022-07-25T03:06:10.078Z,18.92
2022-07-25T03:08:37.848Z,20.05
2022-07-25T03:11:05.830Z,18.75
2022-07-25T03:13:35.083Z,18.05
2022-07-25T03:16:03.087Z,19.35
2022-07-25T03:18:32.251Z,19.70
2022-07-25T03:21:01.095Z,18.90
2022-07-25T03:23:30.891Z,23.35
2022-07-25T03:25:59.270Z,18.55
2022-07-25T03:28:27.788Z,18.92
2022-07-25T03:30:55.675Z,18.00
2022-07-25T03:33:23.611Z,19.08
2022-07-25T03:35:52.985Z,21.38
2022-07-25T03:38:21.084Z,19.52
2022-07-25T03:40:48.964Z,19.10
2022-07-25T03:43:16.711Z,22.27
2022-07-25T03:45:44.798Z,23.75
2022-07-25T03:48:12.578Z,21.20
2022-07-25T03:50:40.410Z,21.30
2022-07-25T03:53:10.306Z,23.58
2022-07-25T03:55:39.660Z,20.80
2022-07-25T03:58:08.090Z,24.35
2022-07-25T04:00:35.812Z,20.02
2022-07-25T04:03:03.568Z,21.02
2022-07-25T04:05:31.655Z,23.15
2022-07-25T04:07:59.620Z,21.08
2022-07-25T04:10:29.737Z,23.20
2022-07-25T04:12:57.493Z,21.27
2022-07-25T04:15:25.378Z,19.70
2022-07-25T04:17:53.051Z,20.42
2022-07-25T04:20:21.733Z,20.80
2022-07-25T04:22:50.582Z,19.90
2022-07-25T04:25:19.029Z,17.20
2022-07-25T04:27:48.542Z,23.00
2022-07-25T04:30:24.321Z,20.52
2022-07-25T04:32:52.912Z,16.90
2022-07-25T04:35:20.942Z,18.63
2022-07-25T04:37:48.706Z,19.48
2022-07-25T04:40:16.879Z,20.15
2022-07-25T04:42:44.616Z,19.77
2022-07-25T04:45:14.475Z,21.13
2022-07-25T04:47:45.851Z,17.13
2022-07-25T04:50:13.946Z,19.80
2022-07-25T04:52:42.044Z,18.15
2022-07-25T04:55:11.138Z,17.33
2022-07-25T04:57:39.783Z,21.08
2022-07-25T05:00:09.986Z,19.95
2022-07-25T05:02:39.276Z,22.00
2022-07-25T05:05:08.491Z,19.80
2022-07-25T05:07:49.444Z,17.85
2022-07-25T05:10:17.252Z,18.27
2022-07-25T05:12:45.071Z,19.10
2022-07-25T05:15:13.549Z,22.90
2022-07-25T05:17:42.713Z,17.45
2022-07-25T05:20:12.175Z,19.38
2022-07-25T05:22:40.023Z,19.25
2022-07-25T05:25:09.370Z,17.92
2022-07-25T05:27:37.351Z,23.30
2022-07-25T05:30:08.793Z,17.55
2022-07-25T05:32:36.558Z,22.08
2022-07-25T05:35:07.937Z,16.92
2022-07-25T05:37:35.827Z,31.17
2022-07-25T05:40:03.971Z,23.60
2022-07-25T05:42:31.814Z,18.48
2022-07-25T05:44:59.630Z,20.98
2022-07-25T05:47:27.652Z,16.45
2022-07-25T05:49:55.557Z,17.33
2022-07-25T05:52:25.540Z,20.42
2022-07-25T05:54:54.309Z,16.25
2022-07-25T05:57:22.423Z,19.63
2022-07-25T05:59:50.146Z,16.83
2022-07-25T06:02:18.069Z,16.65
2022-07-25T06:04:46.157Z,22.25
2022-07-25T06:07:17.064Z,22.58
2022-07-25T06:09:46.479Z,20.00
2022-07-25T06:12:14.890Z,18.30
2022-07-25T06:14:42.677Z,22.25
2022-07-25T06:17:10.665Z,18.42
2022-07-25T06:19:38.439Z,17.48
2022-07-25T06:22:07.989Z,20.65
2022-07-25T06:24:36.030Z,15.52
2022-07-25T06:27:05.371Z,19.73
2022-07-25T06:29:33.189Z,17.38
2022-07-25T06:32:01.210Z,21.95
2022-07-25T06:34:29.146Z,17.63
2022-07-25T06:36:57.469Z,22.75
2022-07-25T06:39:25.961Z,17.70
2022-07-25T06:41:53.792Z,14.95
2022-07-25T06:44:23.055Z,19.90
2022-07-25T06:46:50.908Z,20.08
2022-07-25T06:49:18.937Z,18.85
2022-07-25T06:51:46.722Z,18.80
2022-07-25T06:54:15.644Z,19.83
2022-07-25T06:56:43.504Z,18.95
2022-07-25T06:59:11.420Z,19.25
2022-07-25T07:01:40.784Z,17.98
2022-07-25T07:04:08.855Z,17.63
2022-07-25T07:06:38.662Z,19.27
2022-07-25T07:09:06.594Z,20.20
2022-07-25T07:11:35.069Z,15.70
2022-07-25T07:14:03.666Z,15.23
2022-07-25T07:16:32.372Z,16.20
2022-07-25T07:19:01.564Z,20.70
2022-07-25T07:21:29.439Z,15.27
2022-07-25T07:23:57.222Z,16.83
2022-07-25T07:26:25.002Z,15.88
2022-07-25T07:28:54.509Z,17.42
2022-07-25T07:31:22.485Z,16.42
2022-07-25T07:33:50.381Z,14.77
2022-07-25T07:36:19.474Z,21.77
2022-07-25T07:38:48.462Z,18.30
2022-07-25T07:41:16.575Z,17.40
2022-07-25T07:43:44.404Z,17.27
2022-07-25T07:46:12.355Z,16.55
2022-07-25T07:48:40.371Z,15.65
2022-07-25T07:51:08.289Z,15.88
2022-07-25T07:53:51.357Z,15.00
2022-07-25T07:56:20.142Z,13.93
2022-07-25T07:58:48.340Z,16.52
2022-07-25T08:01:16.295Z,16.30
2022-07-25T08:03:44.161Z,15.88
2022-07-25T08:06:11.882Z,16.15
2022-07-25T08:08:41.298Z,16.45
2022-07-25T08:11:09.099Z,19.42
2022-07-25T08:13:38.127Z,13.13
2022-07-25T08:16:06.897Z,16.10
2022-07-25T08:18:34.963Z,12.88
2022-07-25T08:21:06.051Z,16.38
2022-07-25T08:23:35.389Z,13.73
2022-07-25T08:26:05.434Z,12.82
2022-07-25T08:28:33.429Z,14.63
2022-07-25T08:31:01.876Z,13.68
2022-07-25T08:33:29.742Z,16.33
2022-07-25T08:35:58.785Z,16.40
2022-07-25T08:38:29.002Z,14.85
2022-07-25T08:40:57.936Z,15.23
2022-07-25T08:43:27.242Z,13.15
2022-07-25T08:45:55.997Z,15.35
2022-07-25T08:48:26.153Z,16.35
2022-07-25T08:50:57.289Z,13.52
2022-07-25T08:53:34.097Z,12.43
2022-07-25T08:56:06.721Z,14.20
2022-07-25T08:58:40.656Z,12.88
2022-07-25T09:01:09.122Z,11.07
2022-07-25T09:03:36.988Z,13.57
2022-07-25T09:06:15.898Z,9.43
2022-07-25T09:08:55.614Z,8.90
2022-07-25T09:11:31.736Z,9.45
2022-07-25T09:14:07.104Z,8.60
2022-07-25T09:16:40.135Z,12.90
2022-07-25T09:19:10.691Z,9.27
2022-07-25T09:21:39.854Z,11.10
2022-07-25T09:24:13.108Z,8.27
2022-07-25T09:26:49.262Z,8.20
2022-07-25T09:29:20.097Z,10.55
2022-07-25T09:31:48.153Z,13.90
2022-07-25T09:34:21.890Z,10.68
2022-07-25T09:36:56.436Z,15.65
2022-07-25T09:39:34.358Z,10.05
2022-07-25T09:42:02.364Z,23.70
2022-07-25T09:44:31.696Z,11.38
2022-07-25T09:46:59.839Z,8.82
2022-07-25T09:49:38.135Z,10.88
2022-07-25T09:52:06.428Z,10.30
2022-07-25T09:54:34.841Z,8.38
2022-07-25T09:57:02.725Z,8.85
2022-07-25T09:59:31.899Z,7.80
2022-07-25T10:02:09.187Z,11.30
2022-07-25T10:04:45.983Z,9.07
2022-07-25T10:07:16.439Z,9.50
2022-07-25T10:09:46.739Z,6.63
2022-07-25T10:12:16.227Z,7.65
2022-07-25T10:15:07.455Z,7.85
2022-07-25T10:17:36.252Z,9.90
2022-07-25T10:20:06.565Z,6.43
2022-07-25T10:22:57.898Z,9.63
2022-07-25T10:25:26.477Z,7.45
2022-07-25T10:28:01.108Z,7.72
2022-07-25T10:30:36.798Z,11.50
2022-07-25T10:33:06.544Z,7.07
2022-07-25T10:35:34.347Z,7.75
2022-07-25T10:38:05.182Z,8.98
2022-07-25T10:40:36.703Z,10.95
2022-07-25T10:43:09.783Z,10.15
2022-07-25T10:45:45.243Z,7.22
2022-07-25T10:48:22.126Z,9.77
2022-07-25T10:50:57.854Z,11.68
2022-07-25T10:53:31.521Z,9.95
2022-07-25T10:56:06.117Z,9.90
2022-07-25T10:58:51.902Z,8.85
2022-07-25T11:01:26.361Z,9.00
2022-07-25T11:03:56.501Z,13.00
2022-07-25T11:06:33.478Z,6.15
2022-07-25T11:09:02.203Z,6.88
2022-07-25T11:11:42.100Z,7.10
2022-07-25T11:14:16.756Z,7.93
2022-07-25T11:16:47.617Z,6.95
2022-07-25T11:21:48.120Z,7.07
2022-07-25T11:24:15.842Z,7.57
2022-07-25T11:26:48.266Z,7.78
2022-07-25T11:29:21.752Z,6.43
2022-07-25T11:31:55.491Z,6.28
2022-07-25T11:34:26.370Z,7.93
2022-07-25T11:36:57.239Z,6.90
2022-07-25T11:39:27.150Z,6.32
2022-07-25T11:42:02.943Z,5.45
2022-07-25T11:44:38.622Z,6.82
2022-07-25T11:47:10.308Z,9.20
2022-07-25T11:49:48.505Z,10.43
2022-07-25T11:52:24.038Z,6.07
2022-07-25T11:54:56.973Z,6.40
2022-07-25T11:57:25.932Z,8.15
2022-07-25T11:59:54.272Z,8.00
2022-07-25T12:02:25.956Z,7.00
2022-07-25T12:04:58.459Z,11.90
2022-07-25T12:07:44.994Z,4.45
2022-07-25T12:10:17.171Z,7.18
2022-07-25T12:12:50.645Z,6.57
2022-07-25T12:15:21.597Z,6.18
2022-07-25T12:17:52.303Z,7.93
2022-07-25T12:20:22.115Z,9.70
2022-07-25T12:22:50.964Z,9.20
2022-07-25T12:25:18.930Z,9.35
2022-07-25T12:27:47.007Z,12.48
2022-07-25T12:30:15.685Z,13.75
2022-07-25T12:32:43.957Z,6.95
2022-07-25T12:35:14.914Z,8.88
2022-07-25T12:37:43.547Z,8.52
2022-07-25T12:40:13.525Z,7.55
2022-07-25T12:42:41.382Z,7.38
2022-07-25T12:45:09.920Z,7.38
2022-07-25T12:47:37.860Z,6.63
2022-07-25T12:50:07.288Z,5.30
2022-07-25T12:52:37.837Z,15.75
2022-07-25T12:55:06.874Z,6.45
2022-07-25T12:57:36.146Z,5.32
2022-07-25T13:00:04.543Z,8.33
2022-07-25T13:02:32.437Z,4.80
2022-07-25T13:05:00.387Z,6.90
2022-07-25T13:07:28.260Z,5.15
2022-07-25T13:09:57.548Z,6.65
2022-07-25T13:12:25.345Z,6.40
2022-07-25T13:14:53.183Z,7.20
2022-07-25T13:17:25.070Z,7.25
2022-07-25T13:19:55.455Z,8.13
2022-07-25T13:22:23.480Z,8.02
2022-07-25T13:24:51.307Z,5.50
2022-07-25T13:27:20.979Z,5.47
2022-07-25T13:29:53.960Z,6.97
2022-07-25T13:32:22.218Z,8.00
2022-07-25T13:34:50.196Z,5.13
2022-07-25T13:37:18.099Z,7.88
2022-07-25T13:39:45.840Z,8.65
2022-07-25T13:42:13.662Z,8.75
2022-07-25T13:44:43.066Z,6.10
2022-07-25T13:47:11.065Z,6.53
2022-07-25T13:49:38.903Z,8.07
2022-07-25T13:52:07.428Z,9.52
2022-07-25T13:54:35.299Z,5.82
2022-07-25T13:57:03.413Z,5.47
2022-07-25T13:59:31.457Z,8.00
2022-07-25T14:02:00.709Z,5.80
2022-07-25T14:04:28.588Z,6.95
2022-07-25T14:06:58.328Z,7.30
2022-07-25T14:09:26.105Z,6.10
2022-07-25T14:11:53.900Z,6.05
2022-07-25T14:14:21.626Z,7.00
2022-07-25T14:16:49.988Z,6.55
2022-07-25T14:19:19.109Z,6.65
2022-07-25T14:21:46.805Z,6.22
2022-07-25T14:24:14.582Z,8.43
2022-07-25T14:26:42.367Z,6.90
2022-07-25T14:29:11.311Z,6.35
2022-07-25T14:31:40.658Z,8.07
2022-07-25T14:34:09.027Z,6.73
2022-07-25T14:36:38.185Z,5.53
2022-07-25T14:39:06.611Z,5.97
2022-07-25T14:41:35.244Z,6.03
2022-07-25T14:44:02.956Z,6.72
2022-07-25T14:46:30.998Z,7.88
2022-07-25T14:48:58.967Z,6.43
2022-07-25T14:51:28.487Z,11.60
2022-07-25T14:53:57.589Z,6.93
2022-07-25T14:56:25.338Z,7.13
2022-07-25T14:58:53.070Z,6.38
2022-07-25T15:01:24.301Z,9.55
2022-07-25T15:03:52.356Z,9.23
2022-07-25T15:06:20.216Z,10.20
2022-07-25T15:08:47.985Z,7.97
2022-07-25T15:11:17.093Z,7.15
2022-07-25T15:13:44.955Z,17.17
2022-07-25T15:16:13.886Z,10.27
2022-07-25T15:19:05.306Z,7.47
2022-07-25T15:21:29.791Z,6.38
2022-07-25T15:23:57.553Z,8.40
2022-07-25T15:26:26.677Z,9.10
2022-07-25T15:28:54.587Z,6.97
2022-07-25T15:31:24.277Z,14.38
2022-07-25T15:33:54.402Z,9.07
2022-07-25T15:36:27.103Z,9.77
2022-07-25T15:38:57.171Z,8.73
2022-07-25T15:41:26.617Z,7.28
2022-07-25T15:43:54.646Z,6.82
2022-07-25T15:46:22.556Z,8.88
2022-07-25T15:48:50.696Z,9.95
2022-07-25T15:51:18.670Z,8.07
2022-07-25T15:53:46.661Z,6.30
2022-07-25T15:56:16.029Z,7.20
2022-07-25T15:58:45.931Z,9.00
2022-07-25T16:01:13.789Z,8.70
2022-07-25T16:03:41.681Z,11.10
2022-07-25T16:06:09.823Z,7.97
2022-07-25T16:08:37.840Z,6.35
2022-07-25T16:11:06.178Z,11.25
2022-07-25T16:13:33.947Z,8.93
2022-07-25T16:16:03.070Z,9.30
2022-07-25T16:18:30.969Z,6.68
2022-07-25T16:20:58.674Z,12.60
2022-07-25T16:23:28.103Z,10.95
2022-07-25T16:25:55.888Z,24.52
2022-07-25T16:28:23.593Z,7.60
2022-07-25T16:30:52.145Z,8.45
2022-07-25T16:33:21.379Z,9.63
2022-07-25T16:35:49.163Z,11.57
2022-07-25T16:38:17.627Z,8.18
2022-07-25T16:40:45.425Z,6.60
2022-07-25T16:43:13.144Z,7.10
2022-07-25T16:45:42.197Z,7.07
2022-07-25T16:48:10.276Z,8.15
2022-07-25T16:50:39.644Z,7.43
2022-07-25T16:53:07.562Z,10.57
2022-07-25T16:55:35.413Z,10.60
2022-07-25T16:58:03.731Z,12.10
2022-07-25T17:00:31.784Z,9.52
2022-07-25T17:02:59.638Z,7.35
2022-07-25T17:05:27.461Z,6.88
2022-07-25T17:07:59.392Z,7.80
2022-07-25T17:10:28.053Z,9.45
2022-07-25T17:12:55.845Z,6.95
2022-07-25T17:15:24.074Z,7.00
2022-07-25T17:17:51.867Z,10.95
2022-07-25T17:20:20.155Z,9.30
2022-07-25T17:22:47.952Z,8.82
2022-07-25T17:25:17.772Z,14.95
2022-07-25T17:27:45.699Z,9.25
2022-07-25T17:30:14.017Z,9.93
2022-07-25T17:32:41.769Z,8.48
2022-07-25T17:35:10.471Z,7.45
2022-07-25T17:37:38.262Z,6.78
2022-07-25T17:40:06.868Z,7.63
2022-07-25T17:42:36.011Z,11.20
2022-07-25T17:45:06.878Z,7.78
2022-07-25T17:47:34.875Z,8.80
2022-07-25T17:50:02.828Z,13.85
2022-07-25T17:52:30.845Z,7.88
2022-07-25T17:54:58.875Z,9.40
2022-07-25T17:57:27.226Z,12.27
2022-07-25T17:59:57.120Z,9.68
2022-07-25T18:02:25.300Z,11.52
2022-07-25T18:04:53.437Z,6.75
2022-07-25T18:07:21.159Z,7.18
2022-07-25T18:09:48.889Z,8.63
2022-07-25T18:12:16.621Z,8.27
2022-07-25T18:14:44.387Z,6.80
2022-07-25T18:17:13.657Z,6.95
2022-07-25T18:19:41.558Z,7.65
2022-07-25T18:22:09.347Z,8.18
2022-07-25T18:24:38.331Z,9.40
2022-07-25T18:27:06.692Z,9.45
2022-07-25T18:29:37.010Z,8.15
2022-07-25T18:32:05.411Z,12.23
2022-07-25T18:34:34.557Z,9.35
2022-07-25T18:37:02.336Z,7.75
2022-07-25T18:39:30.218Z,6.70
2022-07-25T18:41:58.103Z,7.00
2022-07-25T18:44:25.878Z,8.32
2022-07-25T18:46:53.849Z,12.50
2022-07-25T18:49:21.926Z,10.50
2022-07-25T18:51:51.290Z,11.25
2022-07-25T18:54:19.063Z,7.97
2022-07-25T18:56:46.940Z,7.75
2022-07-25T18:59:14.703Z,9.85
2022-07-25T19:01:42.658Z,11.02
2022-07-25T19:04:10.902Z,9.43
2022-07-25T19:06:38.944Z,10.43
2022-07-25T19:09:11.326Z,8.30
2022-07-25T19:11:42.382Z,7.32
2022-07-25T19:14:10.691Z,8.85
2022-07-25T19:16:39.620Z,8.30
2022-07-25T19:19:09.496Z,7.13
2022-07-25T19:21:37.690Z,6.15
2022-07-25T19:24:06.457Z,9.70
2022-07-25T19:26:35.853Z,8.00
2022-07-25T19:29:03.596Z,8.80
2022-07-25T19:31:31.413Z,11.82
2022-07-25T19:33:59.163Z,7.78
2022-07-25T19:36:26.948Z,9.18
2022-07-25T19:38:54.689Z,10.68
2022-07-25T19:41:22.514Z,8.43
2022-07-25T19:43:52.384Z,11.05
2022-07-25T19:46:20.597Z,8.90
2022-07-25T19:48:48.578Z,9.65
2022-07-25T19:51:16.475Z,8.25
2022-07-25T19:53:44.277Z,6.40
2022-07-25T19:56:12.024Z,8.07
2022-07-25T19:58:43.163Z,8.27
2022-07-25T20:01:13.054Z,14.32
2022-07-25T20:03:41.712Z,9.15
2022-07-25T20:06:10.019Z,8.63
2022-07-25T20:08:39.263Z,7.75
2022-07-25T20:11:07.366Z,12.07
2022-07-25T20:13:35.973Z,10.90
2022-07-25T20:16:04.025Z,13.05
2022-07-25T20:18:33.406Z,10.38
2022-07-25T20:21:01.168Z,9.27
2022-07-25T20:23:30.102Z,7.65
2022-07-25T20:25:58.063Z,9.15
2022-07-25T20:28:25.970Z,6.60
2022-07-25T20:30:55.734Z,9.07
2022-07-25T20:33:26.986Z,10.95
2022-07-25T20:35:56.666Z,7.15
2022-07-25T20:38:25.535Z,9.43
2022-07-25T20:40:54.560Z,9.13
2022-07-25T20:43:22.974Z,6.30
2022-07-25T20:45:50.897Z,9.70
2022-07-25T20:48:18.890Z,8.75
2022-07-25T20:50:46.787Z,7.93
2022-07-25T20:53:15.926Z,6.97
2022-07-25T20:55:43.700Z,12.23
2022-07-25T20:58:11.433Z,7.70
2022-07-25T21:00:39.202Z,9.48
2022-07-25T21:03:08.206Z,11.27
2022-07-25T21:05:37.588Z,17.52
2022-07-25T21:08:05.793Z,7.88
2022-07-25T21:10:35.048Z,9.82
2022-07-25T21:13:02.892Z,14.35
2022-07-25T21:15:31.739Z,7.88
2022-07-25T21:17:59.987Z,9.68
2022-07-25T21:20:27.842Z,14.68
2022-07-25T21:22:56.326Z,11.63
2022-07-25T21:25:24.138Z,6.97
2022-07-25T21:27:53.288Z,9.32
2022-07-25T21:30:21.090Z,9.10
2022-07-25T21:32:48.878Z,8.77
2022-07-25T21:35:18.084Z,9.52
2022-07-25T21:37:45.873Z,11.20
2022-07-25T21:40:14.146Z,8.18
2022-07-25T21:42:43.342Z,8.18
2022-07-25T21:45:13.214Z,9.43
2022-07-25T21:47:40.931Z,7.60
2022-07-25T21:50:27.379Z,10.48
2022-07-25T21:52:55.216Z,8.55
2022-07-25T21:55:23.452Z,11.70
2022-07-25T21:57:51.684Z,6.57
2022-07-25T22:00:22.378Z,6.85
2022-07-25T22:02:50.326Z,8.05
2022-07-25T22:05:19.096Z,6.78
2022-07-25T22:07:47.640Z,7.70
2022-07-25T22:10:16.897Z,13.15
2022-07-25T22:12:44.965Z,6.82
2022-07-25T22:15:13.801Z,6.82
2022-07-25T22:17:49.226Z,8.65
2022-07-25T22:20:18.040Z,12.05
2022-07-25T22:22:46.643Z,9.02
2022-07-25T22:25:14.778Z,7.95
2022-07-25T22:27:42.718Z,6.70
2022-07-25T22:30:18.433Z,20.30
2022-07-25T22:32:49.066Z,10.95
2022-07-25T22:35:17.076Z,9.00
2022-07-25T22:37:45.281Z,6.80
2022-07-25T22:40:14.675Z,8.07
2022-07-25T22:42:42.743Z,8.13
2022-07-25T22:45:11.365Z,8.38
2022-07-25T22:47:39.130Z,8.25
2022-07-25T22:50:10.268Z,8.02
2022-07-25T22:52:38.011Z,5.40
2022-07-25T22:55:06.481Z,7.18
2022-07-25T22:57:36.766Z,6.57
2022-07-25T23:00:07.335Z,9.52
2022-07-25T23:02:35.365Z,5.50
2022-07-25T23:05:03.215Z,7.20
2022-07-25T23:07:32.667Z,5.95
2022-07-25T23:10:00.608Z,6.32
2022-07-25T23:12:28.473Z,7.00
2022-07-25T23:14:56.314Z,4.32
2022-07-25T23:17:24.669Z,8.57
2022-07-25T23:19:53.994Z,8.27
2022-07-25T23:22:23.041Z,7.32
2022-07-25T23:24:52.215Z,5.50
2022-07-25T23:27:20.023Z,5.32
2022-07-25T23:29:47.770Z,12.77
2022-07-25T23:32:15.590Z,7.78
2022-07-25T23:34:44.250Z,6.85
2022-07-25T23:37:12.160Z,8.07
2022-07-25T23:39:39.935Z,6.65
2022-07-25T23:42:09.709Z,5.90
2022-07-25T23:44:39.126Z,7.38
2022-07-25T23:47:10.014Z,8.23
2022-07-25T23:49:38.054Z,5.93
2022-07-25T23:52:06.703Z,7.28
2022-07-25T23:54:34.895Z,7.85
2022-07-25T23:57:03.137Z,9.45
2022-07-25T23:59:32.241Z,10.85
